createdAt,value
2023-01-18T00:02:55.249Z,22.43
2023-01-18T00:06:01.596Z,17.97
2023-01-18T00:09:04.770Z,18.43
2023-01-18T00:12:08.345Z,18.40
2023-01-18T00:15:15.660Z,17.97
2023-01-18T00:18:21.679Z,17.47
2023-01-18T00:21:26.860Z,17.83
2023-01-18T00:24:30.774Z,16.50
2023-01-18T00:27:33.915Z,17.67
2023-01-18T00:30:38.342Z,16.27
2023-01-18T00:33:43.872Z,17.07
2023-01-18T00:36:49.440Z,15.50
2023-01-18T00:39:52.406Z,16.83
2023-01-18T00:43:13.194Z,16.63
2023-01-18T00:46:20.208Z,15.00
2023-01-18T00:49:24.024Z,17.20
2023-01-18T00:52:27.186Z,15.57
2023-01-18T00:55:30.264Z,16.87
2023-01-18T00:58:33.369Z,16.27
2023-01-18T01:01:37.896Z,16.17
2023-01-18T01:04:58.346Z,15.93
2023-01-18T01:08:01.381Z,15.47
2023-01-18T01:11:07.875Z,13.73
2023-01-18T01:14:28.935Z,17.13
2023-01-18T01:17:54.160Z,16.27
2023-01-18T01:21:14.588Z,15.03
2023-01-18T01:24:35.648Z,15.23
2023-01-18T01:27:38.736Z,14.43
2023-01-18T01:30:41.819Z,15.07
2023-01-18T01:33:49.029Z,15.63
2023-01-18T01:36:52.168Z,15.80
2023-01-18T01:39:55.161Z,14.97
2023-01-18T01:42:58.613Z,16.33
2023-01-18T01:46:02.885Z,15.57
2023-01-18T01:49:13.103Z,15.67
2023-01-18T01:52:21.627Z,15.90
2023-01-18T01:55:28.874Z,15.43
2023-01-18T01:58:33.484Z,14.90
2023-01-18T02:01:37.492Z,14.70
2023-01-18T02:04:46.532Z,15.03
2023-01-18T02:07:50.151Z,15.10
2023-01-18T02:10:54.044Z,14.27
2023-01-18T02:14:01.254Z,15.23
2023-01-18T02:17:17.570Z,14.63
2023-01-18T02:20:51.839Z,15.20
2023-01-18T02:24:41.851Z,15.30
2023-01-18T02:27:52.375Z,14.23
2023-01-18T02:31:04.116Z,14.33
2023-01-18T02:34:16.520Z,15.57
2023-01-18T02:37:27.236Z,15.20
2023-01-18T02:40:57.266Z,14.10
2023-01-18T02:44:18.346Z,15.10
2023-01-18T02:47:23.997Z,13.97
2023-01-18T02:50:28.889Z,14.73
2023-01-18T02:53:33.009Z,14.63
2023-01-18T02:56:40.594Z,16.00
2023-01-18T02:59:48.703Z,15.27
2023-01-18T03:02:55.857Z,14.10
2023-01-18T03:06:02.187Z,14.93
2023-01-18T03:09:05.609Z,16.10
2023-01-18T03:12:20.670Z,14.60
2023-01-18T03:15:30.800Z,14.53
2023-01-18T03:19:00.366Z,15.17
2023-01-18T03:22:04.274Z,15.93
2023-01-18T03:25:10.269Z,14.37
2023-01-18T03:28:36.198Z,14.00
2023-01-18T03:32:02.991Z,14.57
2023-01-18T03:35:14.299Z,12.97
2023-01-18T03:38:18.851Z,15.00
2023-01-18T03:41:26.410Z,14.00
2023-01-18T03:44:36.783Z,13.70
2023-01-18T03:47:40.719Z,13.60
2023-01-18T03:50:51.089Z,13.10
2023-01-18T03:54:03.179Z,14.17
2023-01-18T03:57:13.765Z,13.77
2023-01-18T04:00:17.641Z,15.00
2023-01-18T04:03:20.831Z,13.23
2023-01-18T04:06:25.774Z,15.23
2023-01-18T04:09:28.870Z,12.97
2023-01-18T04:12:34.296Z,13.37
2023-01-18T04:15:37.294Z,13.97
2023-01-18T04:18:40.293Z,14.77
2023-01-18T04:21:45.032Z,13.13
2023-01-18T04:24:48.084Z,12.83
2023-01-18T04:27:51.128Z,13.10
2023-01-18T04:30:55.151Z,13.83
2023-01-18T04:33:58.296Z,13.97
2023-01-18T04:37:02.653Z,13.47
2023-01-18T04:40:06.805Z,13.70
2023-01-18T04:43:10.208Z,13.77
2023-01-18T04:46:13.253Z,13.17
2023-01-18T04:49:17.448Z,12.93
2023-01-18T04:52:21.882Z,13.63
2023-01-18T04:55:24.886Z,13.43
2023-01-18T04:58:27.863Z,13.70
2023-01-18T05:01:31.052Z,13.53
2023-01-18T05:04:34.183Z,12.67
2023-01-18T05:07:38.550Z,11.97
2023-01-18T05:10:41.593Z,12.70
2023-01-18T05:13:48.192Z,12.47
2023-01-18T05:16:51.307Z,12.33
2023-01-18T05:19:54.949Z,13.50
2023-01-18T05:22:59.916Z,12.63
2023-01-18T05:26:04.951Z,12.70
2023-01-18T05:29:08.007Z,10.83
2023-01-18T05:32:11.809Z,10.80
2023-01-18T05:35:14.827Z,10.97
2023-01-18T05:38:20.388Z,10.13
2023-01-18T05:41:23.470Z,10.30
2023-01-18T05:44:26.607Z,8.30
2023-01-18T05:47:29.659Z,8.87
2023-01-18T05:50:32.655Z,8.03
2023-01-18T05:53:50.035Z,8.13
2023-01-18T05:56:53.110Z,8.27
2023-01-18T05:59:56.156Z,8.07
2023-01-18T06:02:59.678Z,7.73
2023-01-18T06:06:02.953Z,8.37
2023-01-18T06:09:08.000Z,8.23
2023-01-18T06:12:11.355Z,7.63
2023-01-18T06:15:15.598Z,6.87
2023-01-18T06:18:18.812Z,7.17
2023-01-18T06:21:24.683Z,9.10
2023-01-18T06:24:31.845Z,8.17
2023-01-18T06:27:35.134Z,8.03
2023-01-18T06:30:38.250Z,7.50
2023-01-18T06:33:41.374Z,8.80
2023-01-18T06:36:45.157Z,9.53
2023-01-18T06:39:49.562Z,8.00
2023-01-18T06:42:52.845Z,8.43
2023-01-18T06:45:57.337Z,9.07
2023-01-18T06:49:00.650Z,10.10
2023-01-18T06:52:03.902Z,9.40
2023-01-18T06:55:09.164Z,8.87
2023-01-18T06:58:12.444Z,8.57
2023-01-18T07:01:15.613Z,8.87
2023-01-18T07:04:18.698Z,8.70
2023-01-18T07:07:22.472Z,9.57
2023-01-18T07:10:48.554Z,8.83
2023-01-18T07:14:11.509Z,9.53
2023-01-18T07:17:16.236Z,8.10
2023-01-18T07:20:20.471Z,9.30
2023-01-18T07:23:23.566Z,8.47
2023-01-18T07:26:28.018Z,8.73
2023-01-18T07:29:31.237Z,8.80
2023-01-18T07:32:34.253Z,10.03
2023-01-18T07:35:37.344Z,9.67
2023-01-18T07:38:40.628Z,8.80
2023-01-18T07:41:45.341Z,9.37
2023-01-18T07:44:48.654Z,8.97
2023-01-18T07:47:53.376Z,8.80
2023-01-18T07:50:58.803Z,9.23
2023-01-18T07:54:02.142Z,8.87
2023-01-18T07:57:06.917Z,9.23
2023-01-18T08:00:14.703Z,7.97
2023-01-18T08:03:19.743Z,9.23
2023-01-18T08:06:25.651Z,7.13
2023-01-18T08:09:29.090Z,7.37
2023-01-18T08:12:33.476Z,7.13
2023-01-18T08:15:37.160Z,7.93
2023-01-18T08:18:40.894Z,7.50
2023-01-18T08:21:43.991Z,7.90
2023-01-18T08:24:47.064Z,8.97
2023-01-18T08:27:51.546Z,8.40
2023-01-18T08:30:54.920Z,8.13
2023-01-18T08:34:00.472Z,8.33
2023-01-18T08:37:04.455Z,7.87
2023-01-18T08:40:09.567Z,7.87
2023-01-18T08:43:32.873Z,8.20
2023-01-18T08:46:54.240Z,7.40
2023-01-18T08:50:15.733Z,8.57
2023-01-18T08:53:37.389Z,7.40
2023-01-18T08:56:59.402Z,6.77
2023-01-18T09:00:26.776Z,7.63
2023-01-18T09:03:50.435Z,7.80
2023-01-18T09:07:12.218Z,8.37
2023-01-18T09:10:37.447Z,8.03
2023-01-18T09:14:01.665Z,8.00
2023-01-18T09:17:24.997Z,6.93
2023-01-18T09:20:46.494Z,6.97
2023-01-18T09:24:09.540Z,8.00
2023-01-18T09:27:31.277Z,7.60
2023-01-18T09:30:53.360Z,7.53
2023-01-18T09:34:17.715Z,7.40
2023-01-18T09:37:21.558Z,7.80
2023-01-18T09:40:35.803Z,7.50
2023-01-18T09:43:45.645Z,6.40
2023-01-18T09:46:54.312Z,7.53
2023-01-18T09:50:02.344Z,7.20
2023-01-18T09:53:19.945Z,7.83
2023-01-18T09:56:28.710Z,6.80
2023-01-18T09:59:38.258Z,6.93
2023-01-18T10:02:43.083Z,6.77
2023-01-18T10:06:08.265Z,7.70
2023-01-18T10:09:17.569Z,7.73
2023-01-18T10:12:28.060Z,7.77
2023-01-18T10:15:36.479Z,8.87
2023-01-18T10:18:45.627Z,8.20
2023-01-18T10:21:56.332Z,7.07
2023-01-18T10:25:04.976Z,7.30
2023-01-18T10:28:25.293Z,8.27
2023-01-18T10:31:44.506Z,7.53
2023-01-18T10:34:53.656Z,7.10
2023-01-18T10:38:02.362Z,7.57
2023-01-18T10:41:06.159Z,10.30
2023-01-18T10:44:10.238Z,8.30
2023-01-18T10:47:18.008Z,8.67
2023-01-18T10:50:25.009Z,8.40
2023-01-18T10:53:36.481Z,8.63
2023-01-18T10:56:40.094Z,8.07
2023-01-18T10:59:44.018Z,7.73
2023-01-18T11:02:51.520Z,7.70
2023-01-18T11:06:06.202Z,7.73
2023-01-18T11:09:42.032Z,8.80
2023-01-18T11:12:48.531Z,8.57
2023-01-18T11:16:10.583Z,8.87
2023-01-18T11:19:19.956Z,9.30
2023-01-18T11:22:25.067Z,9.37
2023-01-18T11:25:38.740Z,8.43
2023-01-18T11:28:51.329Z,8.40
2023-01-18T11:31:56.183Z,8.33
2023-01-18T11:35:00.992Z,9.13
2023-01-18T11:38:06.743Z,8.97
2023-01-18T11:41:21.302Z,8.50
2023-01-18T11:44:28.619Z,9.27
2023-01-18T11:47:40.772Z,8.60
2023-01-18T11:50:48.383Z,9.50
2023-01-18T11:53:59.655Z,9.07
2023-01-18T11:57:05.033Z,9.00
2023-01-18T12:00:15.936Z,8.73
2023-01-18T12:03:47.598Z,9.43
2023-01-18T12:07:03.247Z,9.93
2023-01-18T12:10:13.189Z,9.90
2023-01-18T12:13:36.128Z,9.20
2023-01-18T12:17:03.001Z,10.97
2023-01-18T12:20:27.052Z,9.20
2023-01-18T12:23:57.411Z,8.73
2023-01-18T12:27:04.877Z,9.13
2023-01-18T12:30:28.948Z,8.50
2023-01-18T12:33:47.891Z,8.80
2023-01-18T12:37:09.321Z,9.53
2023-01-18T12:40:38.246Z,8.03
2023-01-18T12:43:52.236Z,8.67
2023-01-18T12:47:09.281Z,8.47
2023-01-18T12:50:24.144Z,7.30
2023-01-18T12:53:40.347Z,9.80
2023-01-18T12:56:47.138Z,9.27
2023-01-18T12:59:56.086Z,8.50
2023-01-18T13:03:00.652Z,7.97
2023-01-18T13:06:04.284Z,7.20
2023-01-18T13:09:13.496Z,7.30
2023-01-18T13:12:17.515Z,7.80
2023-01-18T13:15:32.748Z,6.80
2023-01-18T13:18:44.461Z,7.33
2023-01-18T13:22:07.529Z,8.47
2023-01-18T13:25:33.617Z,7.40
2023-01-18T13:28:38.245Z,7.20
2023-01-18T13:31:41.397Z,7.10
2023-01-18T13:34:48.970Z,8.13
2023-01-18T13:37:56.226Z,7.53
2023-01-18T13:41:05.260Z,8.13
2023-01-18T13:44:32.288Z,8.10
2023-01-18T13:48:00.979Z,8.43
2023-01-18T13:51:07.338Z,9.13
2023-01-18T13:54:17.662Z,8.13
2023-01-18T13:57:23.300Z,8.60
2023-01-18T14:00:27.870Z,7.50
2023-01-18T14:03:35.303Z,7.80
2023-01-18T14:06:44.845Z,7.27
2023-01-18T14:09:50.171Z,7.60
2023-01-18T14:12:55.974Z,7.53
2023-01-18T14:16:00.373Z,7.47
2023-01-18T14:19:15.735Z,6.87
2023-01-18T14:22:37.368Z,7.67
2023-01-18T14:25:58.271Z,8.43
2023-01-18T14:29:05.385Z,9.03
2023-01-18T14:32:13.654Z,9.60
2023-01-18T14:35:25.941Z,8.43
2023-01-18T14:38:31.258Z,8.97
2023-01-18T14:41:34.543Z,8.67
2023-01-18T14:44:57.784Z,9.40
2023-01-18T14:48:09.463Z,8.47
2023-01-18T14:51:18.341Z,9.20
2023-01-18T14:54:25.817Z,9.07
2023-01-18T14:57:28.968Z,7.60
2023-01-18T15:00:32.419Z,9.80
2023-01-18T15:03:35.649Z,9.30
2023-01-18T15:06:42.410Z,9.03
2023-01-18T15:09:47.788Z,8.40
2023-01-18T15:12:57.773Z,8.27
2023-01-18T15:16:02.185Z,8.37
2023-01-18T15:19:05.843Z,8.40
2023-01-18T15:22:12.923Z,8.27
2023-01-18T15:25:24.636Z,8.37
2023-01-18T15:28:33.894Z,9.17
2023-01-18T15:31:46.841Z,8.93
2023-01-18T15:34:52.450Z,8.60
2023-01-18T15:37:55.951Z,8.93
2023-01-18T15:41:10.627Z,10.47
2023-01-18T15:44:48.009Z,10.10
2023-01-18T15:47:54.217Z,9.07
2023-01-18T15:50:59.878Z,9.93
2023-01-18T15:54:10.445Z,9.17
2023-01-18T15:57:20.570Z,9.03
2023-01-18T16:00:29.352Z,9.73
2023-01-18T16:03:37.915Z,9.87
2023-01-18T16:06:41.074Z,10.47
2023-01-18T16:09:47.304Z,9.27
2023-01-18T16:12:52.189Z,9.50
2023-01-18T16:16:22.439Z,11.97
2023-01-18T16:19:30.080Z,11.50
2023-01-18T16:22:37.158Z,11.63
2023-01-18T16:25:40.570Z,9.80
2023-01-18T16:28:45.245Z,10.83
2023-01-18T16:31:49.187Z,11.23
2023-01-18T16:34:53.276Z,11.33
2023-01-18T16:38:01.823Z,10.03
2023-01-18T16:41:05.221Z,11.70
2023-01-18T16:44:12.563Z,11.40
2023-01-18T16:47:18.516Z,12.17
2023-01-18T16:50:21.915Z,11.03
2023-01-18T16:53:25.036Z,11.47
2023-01-18T16:56:28.303Z,10.30
2023-01-18T16:59:34.790Z,10.67
2023-01-18T17:02:45.764Z,9.83
2023-01-18T17:05:52.273Z,10.30
2023-01-18T17:09:05.769Z,10.57
2023-01-18T17:12:28.026Z,9.47
2023-01-18T17:16:35.671Z,9.87
2023-01-18T17:19:45.064Z,9.73
2023-01-18T17:22:48.597Z,10.77
2023-01-18T17:25:51.633Z,11.13
2023-01-18T17:28:56.833Z,10.60
2023-01-18T17:32:01.227Z,10.90
2023-01-18T17:35:05.243Z,11.07
2023-01-18T17:38:22.269Z,11.07
2023-01-18T17:41:29.145Z,11.00
2023-01-18T17:44:37.447Z,11.50
2023-01-18T17:47:44.293Z,11.33
2023-01-18T17:50:47.546Z,11.67
2023-01-18T17:53:50.597Z,13.83
2023-01-18T17:56:54.076Z,14.03
2023-01-18T17:59:57.161Z,13.07
2023-01-18T18:03:02.315Z,12.57
2023-01-18T18:06:06.421Z,12.23
2023-01-18T18:09:11.572Z,11.27
2023-01-18T18:12:14.609Z,13.10
2023-01-18T18:15:17.994Z,13.87
2023-01-18T18:18:23.590Z,15.13
2023-01-18T18:21:29.921Z,13.50
2023-01-18T18:24:32.972Z,12.90
2023-01-18T18:27:45.372Z,13.30
2023-01-18T18:30:49.186Z,11.97
2023-01-18T18:33:53.610Z,10.00
2023-01-18T18:36:58.902Z,11.03
2023-01-18T18:40:02.638Z,12.90
2023-01-18T18:43:06.154Z,12.63
2023-01-18T18:46:09.463Z,12.53
2023-01-18T18:49:14.397Z,10.77
2023-01-18T18:52:17.884Z,9.70
2023-01-18T18:55:21.023Z,11.77
2023-01-18T18:58:24.174Z,12.93
2023-01-18T19:01:30.138Z,18.00
2023-01-18T19:04:34.644Z,14.37
2023-01-18T19:07:38.585Z,14.10
2023-01-18T19:10:41.851Z,13.30
2023-01-18T19:14:03.257Z,11.20
2023-01-18T19:22:20.951Z,13.13
2023-01-18T19:26:27.204Z,15.53
2023-01-18T19:34:33.169Z,19.70
2023-01-18T19:37:57.824Z,17.53
2023-01-18T19:41:12.815Z,16.33
2023-01-18T19:44:22.715Z,18.27
2023-01-18T19:47:26.087Z,17.60
2023-01-18T19:50:32.306Z,18.93
2023-01-18T19:53:36.959Z,14.50
2023-01-18T19:56:40.084Z,14.77
2023-01-18T19:59:43.353Z,13.57
2023-01-18T20:02:50.391Z,13.83
2023-01-18T20:05:53.737Z,14.60
2023-01-18T20:08:58.927Z,14.17
2023-01-18T20:12:03.249Z,13.47
2023-01-18T20:15:07.712Z,13.27
2023-01-18T20:18:13.899Z,12.80
2023-01-18T20:21:19.173Z,17.63
2023-01-18T20:24:23.669Z,16.30
2023-01-18T20:27:26.763Z,16.93
2023-01-18T20:30:35.618Z,18.20
2023-01-18T20:33:39.373Z,17.37
2023-01-18T20:36:42.644Z,17.43
2023-01-18T20:39:47.266Z,16.83
2023-01-18T20:42:50.340Z,16.80
2023-01-18T20:46:01.920Z,16.70
2023-01-18T20:49:05.859Z,15.80
2023-01-18T20:52:09.588Z,17.90
2023-01-18T20:55:17.574Z,18.27
2023-01-18T20:58:20.653Z,16.67
2023-01-18T21:01:24.172Z,18.67
2023-01-18T21:04:27.280Z,18.00
2023-01-18T21:07:30.438Z,17.00
2023-01-18T21:10:39.334Z,17.63
2023-01-18T21:13:42.460Z,19.03
2023-01-18T21:16:45.785Z,16.97
2023-01-18T21:19:53.437Z,17.93
2023-01-18T21:22:57.510Z,18.43
2023-01-18T21:26:02.206Z,17.87
2023-01-18T21:29:05.985Z,17.37
2023-01-18T21:32:09.050Z,17.73
2023-01-18T21:35:12.597Z,17.07
2023-01-18T21:38:16.439Z,17.70
2023-01-18T21:41:38.657Z,17.00
2023-01-18T21:44:59.326Z,16.70
2023-01-18T21:48:07.217Z,15.67
2023-01-18T21:51:28.432Z,17.63
2023-01-18T21:54:31.423Z,16.90
2023-01-18T21:57:39.374Z,16.93
2023-01-18T22:00:43.472Z,17.13
2023-01-18T22:04:04.521Z,17.10
2023-01-18T22:07:07.530Z,18.47
2023-01-18T22:10:11.723Z,18.00
2023-01-18T22:13:16.072Z,17.83
2023-01-18T22:16:19.468Z,17.57
2023-01-18T22:19:22.661Z,18.07
2023-01-18T22:22:25.706Z,17.80
2023-01-18T22:25:28.746Z,17.17
2023-01-18T22:28:33.618Z,22.13
2023-01-18T22:31:37.108Z,23.67
2023-01-18T22:34:46.262Z,20.57
2023-01-18T22:37:49.493Z,18.37
2023-01-18T22:41:02.722Z,18.83
2023-01-18T22:44:07.545Z,19.17
2023-01-18T22:47:10.633Z,18.00
2023-01-18T22:50:13.659Z,19.83
2023-01-18T22:53:16.821Z,17.87
2023-01-18T22:56:22.933Z,17.20
2023-01-18T22:59:27.374Z,17.00
2023-01-18T23:02:30.476Z,19.37
2023-01-18T23:05:33.560Z,18.57
2023-01-18T23:08:42.358Z,17.97
2023-01-18T23:11:48.976Z,17.97
2023-01-18T23:15:11.324Z,18.40
2023-01-18T23:18:14.612Z,19.73
2023-01-18T23:21:17.723Z,18.37
2023-01-18T23:24:21.729Z,17.23
2023-01-18T23:27:25.450Z,17.13
2023-01-18T23:30:30.636Z,17.20
2023-01-18T23:33:33.792Z,16.80
2023-01-18T23:36:37.031Z,16.10
2023-01-18T23:39:57.839Z,16.43
2023-01-18T23:43:18.350Z,16.87
2023-01-18T23:46:40.604Z,15.60
2023-01-18T23:50:01.253Z,15.37
2023-01-18T23:53:22.406Z,16.37
2023-01-18T23:56:26.106Z,17.60
2023-01-18T23:59:29.190Z,17.80
